createdAt,value
2019-05-25T00:00:10.809Z,9.40
2019-05-25T00:03:14.666Z,9.30
2019-05-25T00:06:18.586Z,9.20
2019-05-25T00:09:22.438Z,9.10
2019-05-25T00:12:26.405Z,8.90
2019-05-25T00:15:30.265Z,8.80
2019-05-25T00:18:34.179Z,8.60
2019-05-25T00:21:38.062Z,8.50
2019-05-25T00:24:41.934Z,8.40
2019-05-25T00:27:45.779Z,8.40
2019-05-25T00:30:49.653Z,8.30
2019-05-25T00:33:53.502Z,8.30
2019-05-25T00:36:57.406Z,8.30
2019-05-25T00:40:01.255Z,8.20
2019-05-25T00:43:05.146Z,8.20
2019-05-25T00:46:09.026Z,8.30
2019-05-25T00:49:12.913Z,8.30
2019-05-25T00:52:16.813Z,8.30
2019-05-25T00:55:20.810Z,8.20
2019-05-25T00:58:24.646Z,8.10
2019-05-25T01:01:28.616Z,8.00
2019-05-25T01:04:32.490Z,8.00
2019-05-25T01:07:36.439Z,8.10
2019-05-25T01:10:40.301Z,8.20
2019-05-25T01:13:44.218Z,8.30
2019-05-25T01:16:48.064Z,8.30
2019-05-25T01:19:51.938Z,8.30
2019-05-25T01:22:55.795Z,8.30
2019-05-25T01:25:59.687Z,8.30
2019-05-25T01:29:03.674Z,8.10
2019-05-25T01:32:07.551Z,8.20
2019-05-25T01:35:12.305Z,8.20
2019-05-25T01:38:16.220Z,8.20
2019-05-25T01:41:20.086Z,8.20
2019-05-25T01:44:24.020Z,8.10
2019-05-25T01:47:27.972Z,8.00
2019-05-25T01:50:31.828Z,8.10
2019-05-25T01:53:35.673Z,8.20
2019-05-25T01:56:39.571Z,8.10
2019-05-25T01:59:43.445Z,8.00
2019-05-25T02:02:47.362Z,8.00
2019-05-25T02:05:51.175Z,7.90
2019-05-25T02:08:55.137Z,7.90
2019-05-25T02:11:59.052Z,7.80
2019-05-25T02:15:03.016Z,7.90
2019-05-25T02:18:06.892Z,7.90
2019-05-25T02:21:10.767Z,7.80
2019-05-25T02:24:14.710Z,7.70
2019-05-25T02:27:18.596Z,7.60
2019-05-25T02:30:26.819Z,7.60
2019-05-25T02:33:30.746Z,7.50
2019-05-25T02:36:34.635Z,7.40
2019-05-25T02:39:38.514Z,7.40
2019-05-25T02:42:42.380Z,7.50
2019-05-25T02:45:46.432Z,7.50
2019-05-25T02:48:50.228Z,7.60
2019-05-25T02:51:54.113Z,7.60
2019-05-25T02:54:58.002Z,7.50
2019-05-25T02:58:01.928Z,7.40
2019-05-25T03:01:05.871Z,7.40
2019-05-25T03:04:09.857Z,7.20
2019-05-25T03:07:14.312Z,7.20
2019-05-25T03:10:18.315Z,7.10
2019-05-25T03:13:22.222Z,7.10
2019-05-25T03:16:26.119Z,7.20
2019-05-25T03:19:29.979Z,7.40
2019-05-25T03:22:33.913Z,7.50
2019-05-25T03:25:49.019Z,7.50
2019-05-25T03:28:43.377Z,7.60
2019-05-25T03:31:47.343Z,7.70
2019-05-25T03:34:51.240Z,7.80
2019-05-25T03:37:55.101Z,7.90
2019-05-25T03:40:59.007Z,8.00
2019-05-25T03:44:02.946Z,8.10
2019-05-25T03:47:06.857Z,8.20
2019-05-25T03:50:10.712Z,8.40
2019-05-25T03:53:26.326Z,8.50
2019-05-25T03:56:30.136Z,8.60
2019-05-25T03:59:34.101Z,8.70
2019-05-25T04:02:38.152Z,8.80
2019-05-25T04:05:42.034Z,9.00
2019-05-25T04:08:45.893Z,9.10
2019-05-25T04:11:49.824Z,9.20
2019-05-25T04:14:53.718Z,9.30
2019-05-25T04:17:57.734Z,9.40
2019-05-25T04:21:01.594Z,9.50
2019-05-25T04:24:06.030Z,9.70
2019-05-25T04:27:09.944Z,9.80
2019-05-25T04:30:14.095Z,10.10
2019-05-25T04:33:18.013Z,10.50
2019-05-25T04:36:21.859Z,11.00
2019-05-25T04:39:25.754Z,11.40
2019-05-25T04:42:29.641Z,11.80
2019-05-25T04:45:33.512Z,12.10
2019-05-25T04:48:37.399Z,12.50
2019-05-25T04:51:41.232Z,13.10
2019-05-25T04:54:45.108Z,13.60
2019-05-25T04:57:48.978Z,14.00
2019-05-25T05:00:52.912Z,14.40
2019-05-25T05:03:56.849Z,14.80
2019-05-25T05:07:00.785Z,15.00
2019-05-25T05:10:07.093Z,15.30
2019-05-25T05:13:11.012Z,15.50
2019-05-25T05:16:14.837Z,15.80
2019-05-25T05:19:18.714Z,16.20
2019-05-25T05:22:39.402Z,16.30
2019-05-25T05:25:46.152Z,16.60
2019-05-25T05:28:50.043Z,17.00
2019-05-25T05:31:56.646Z,17.40
2019-05-25T05:35:03.464Z,17.70
2019-05-25T05:42:14.911Z,17.90
2019-05-25T05:45:18.790Z,17.60
2019-05-25T05:48:25.583Z,17.60
2019-05-25T05:51:31.989Z,17.60
2019-05-25T05:54:38.682Z,17.50
2019-05-25T05:57:42.631Z,17.60
2019-05-25T06:00:47.229Z,17.80
2019-05-25T06:03:51.119Z,18.10
2019-05-25T06:06:54.974Z,18.40
2019-05-25T06:09:58.878Z,18.70
2019-05-25T06:13:02.712Z,18.90
2019-05-25T06:16:06.635Z,19.10
2019-05-25T06:19:10.460Z,19.20
2019-05-25T06:22:14.348Z,19.30
2019-05-25T06:25:18.484Z,19.60
2019-05-25T06:28:22.627Z,19.80
2019-05-25T06:31:26.588Z,19.60
2019-05-25T06:34:34.028Z,19.80
2019-05-25T06:37:37.968Z,20.00
2019-05-25T06:40:41.892Z,19.90
2019-05-25T06:43:46.396Z,20.20
2019-05-25T06:46:50.311Z,20.50
2019-05-25T06:49:57.561Z,20.70
2019-05-25T06:53:01.753Z,20.80
2019-05-25T06:56:05.596Z,20.60
2019-05-25T06:59:09.508Z,20.70
2019-05-25T07:02:13.338Z,20.90
2019-05-25T07:05:17.232Z,21.10
2019-05-25T07:08:21.116Z,21.20
2019-05-25T07:11:24.989Z,21.20
2019-05-25T07:14:28.855Z,21.30
2019-05-25T07:17:32.767Z,21.40
2019-05-25T07:20:36.588Z,21.40
2019-05-25T07:23:40.468Z,21.60
2019-05-25T07:26:44.328Z,21.80
2019-05-25T07:29:48.347Z,21.90
2019-05-25T07:32:52.187Z,21.80
2019-05-25T07:35:56.081Z,21.90
2019-05-25T07:38:59.962Z,23.90
2019-05-25T07:42:03.895Z,26.60
2019-05-25T07:45:09.388Z,28.00
2019-05-25T07:48:13.340Z,28.90
2019-05-25T07:51:17.306Z,29.20
2019-05-25T07:54:21.153Z,29.30
2019-05-25T07:57:28.422Z,29.00
2019-05-25T08:00:30.543Z,28.30
2019-05-25T08:03:34.430Z,27.90
2019-05-25T08:06:38.271Z,27.70
2019-05-25T08:09:42.108Z,27.30
2019-05-25T08:12:46.682Z,26.80
2019-05-25T08:15:50.522Z,26.20
2019-05-25T08:18:54.427Z,25.90
2019-05-25T08:21:58.239Z,25.70
2019-05-25T08:25:02.098Z,25.40
2019-05-25T08:28:05.979Z,25.20
2019-05-25T08:31:09.910Z,25.10
2019-05-25T08:34:13.884Z,24.80
2019-05-25T08:37:17.778Z,24.60
2019-05-25T08:40:21.574Z,24.60
2019-05-25T08:43:25.436Z,24.60
2019-05-25T08:46:29.263Z,24.50
2019-05-25T08:49:33.153Z,24.20
2019-05-25T08:52:37.310Z,23.80
2019-05-25T08:55:41.230Z,23.70
2019-05-25T08:58:48.263Z,23.50
2019-05-25T09:01:50.628Z,23.40
2019-05-25T09:04:54.488Z,23.60
2019-05-25T09:07:58.397Z,23.60
2019-05-25T09:11:02.226Z,23.60
2019-05-25T09:14:06.115Z,23.60
2019-05-25T09:17:09.973Z,23.60
2019-05-25T09:20:14.076Z,23.50
2019-05-25T09:23:17.953Z,23.60
2019-05-25T09:26:21.882Z,23.70
2019-05-25T09:29:25.736Z,23.60
2019-05-25T09:32:29.685Z,23.50
2019-05-25T09:35:33.577Z,23.40
2019-05-25T09:38:37.503Z,23.10
2019-05-25T09:41:41.506Z,23.00
2019-05-25T09:44:45.409Z,22.90
2019-05-25T09:47:49.238Z,23.00
2019-05-25T09:50:53.126Z,23.10
2019-05-25T09:53:56.952Z,23.00
2019-05-25T09:57:00.948Z,22.80
2019-05-25T10:00:07.864Z,22.80
2019-05-25T10:03:11.867Z,22.90
2019-05-25T10:06:15.699Z,23.00
2019-05-25T10:09:19.577Z,23.00
2019-05-25T10:30:23.228Z,23.40
2019-05-25T10:33:27.144Z,22.40
2019-05-25T10:36:31.458Z,21.80
2019-05-25T10:39:35.328Z,21.60
2019-05-25T10:57:00.396Z,25.60
2019-05-25T11:01:35.060Z,25.00
2019-05-25T11:04:38.962Z,24.60
2019-05-25T11:07:42.801Z,24.70
2019-05-25T11:10:47.177Z,24.30
2019-05-25T11:13:51.354Z,24.30
2019-05-25T11:16:55.261Z,24.40
2019-05-25T11:19:59.098Z,24.50
2019-05-25T11:23:03.041Z,24.10
2019-05-25T11:26:06.937Z,24.10
2019-05-25T11:29:10.817Z,24.20
2019-05-25T11:32:14.701Z,24.30
2019-05-25T11:35:18.986Z,24.50
2019-05-25T11:38:22.823Z,24.50
2019-05-25T11:41:26.669Z,24.20
2019-05-25T11:44:30.508Z,24.30
2019-05-25T11:47:34.396Z,24.40
2019-05-25T11:50:38.327Z,24.30
2019-05-25T11:53:43.717Z,24.50
2019-05-25T11:56:47.659Z,24.60
2019-05-25T11:59:51.570Z,24.90
2019-05-25T12:02:55.516Z,24.90
2019-05-25T12:05:59.456Z,24.90
2019-05-25T12:09:03.290Z,24.80
2019-05-25T12:12:07.309Z,24.90
2019-05-25T12:15:11.583Z,24.90
2019-05-25T12:18:15.483Z,24.90
2019-05-25T12:21:19.292Z,25.10
2019-05-25T12:24:23.174Z,24.90
2019-05-25T12:27:27.018Z,25.10
2019-05-25T12:30:40.268Z,24.80
2019-05-25T12:33:36.435Z,25.30
2019-05-25T12:36:40.450Z,25.10
2019-05-25T12:39:44.275Z,25.30
2019-05-25T12:42:48.177Z,25.60
2019-05-25T12:45:52.005Z,25.80
2019-05-25T12:48:55.908Z,25.30
2019-05-25T12:51:59.819Z,25.40
2019-05-25T12:55:04.252Z,24.90
2019-05-25T12:58:08.082Z,24.80
2019-05-25T13:01:11.960Z,24.80
2019-05-25T13:04:15.807Z,25.00
2019-05-25T13:07:19.722Z,25.30
2019-05-25T13:10:23.787Z,25.20
2019-05-25T13:13:27.663Z,25.30
2019-05-25T13:16:31.526Z,25.40
2019-05-25T13:19:35.433Z,25.00
2019-05-25T13:22:39.690Z,25.00
2019-05-25T13:25:43.594Z,24.70
2019-05-25T13:28:47.701Z,24.70
2019-05-25T13:31:51.637Z,24.90
2019-05-25T13:34:55.551Z,24.40
2019-05-25T13:37:59.448Z,24.80
2019-05-25T13:41:03.298Z,25.00
2019-05-25T13:44:07.176Z,24.90
2019-05-25T13:47:10.999Z,24.70
2019-05-25T13:50:15.648Z,24.50
2019-05-25T13:53:19.502Z,24.50
2019-05-25T13:56:23.491Z,24.70
2019-05-25T13:59:27.347Z,24.90
2019-05-25T14:02:31.351Z,24.80
2019-05-25T14:05:35.202Z,24.80
2019-05-25T14:08:39.112Z,24.70
2019-05-25T14:11:42.937Z,24.60
2019-05-25T14:14:47.014Z,24.70
2019-05-25T14:17:50.907Z,24.60
2019-05-25T14:20:54.837Z,24.50
2019-05-25T14:23:58.708Z,24.70
2019-05-25T14:27:02.751Z,24.60
2019-05-25T14:30:06.966Z,24.90
2019-05-25T14:33:11.027Z,24.90
2019-05-25T14:36:14.878Z,24.70
2019-05-25T14:39:18.803Z,24.80
2019-05-25T14:42:22.622Z,24.70
2019-05-25T14:45:26.540Z,24.80
2019-05-25T14:48:30.374Z,24.60
2019-05-25T14:51:34.322Z,24.60
2019-05-25T14:54:38.154Z,24.60
2019-05-25T14:57:42.028Z,24.00
2019-05-25T15:00:46.176Z,24.30
2019-05-25T15:03:50.089Z,24.20
2019-05-25T15:06:53.953Z,24.40
2019-05-25T15:09:57.797Z,24.30
2019-05-25T15:13:01.688Z,23.90
2019-05-25T15:16:05.578Z,23.70
2019-05-25T15:19:09.443Z,23.80
2019-05-25T15:22:13.491Z,23.70
2019-05-25T15:25:18.027Z,23.70
2019-05-25T15:28:21.958Z,23.50
2019-05-25T15:31:25.811Z,23.70
2019-05-25T15:34:29.702Z,23.50
2019-05-25T15:37:33.538Z,23.20
2019-05-25T15:40:39.111Z,22.90
2019-05-25T15:43:42.941Z,22.80
2019-05-25T16:11:07.543Z,22.70
2019-05-25T16:14:11.451Z,22.60
2019-05-25T16:17:15.299Z,22.60
2019-05-25T16:20:22.069Z,22.40
2019-05-25T16:23:25.927Z,22.40
2019-05-25T16:26:43.129Z,22.30
2019-05-25T16:29:35.375Z,22.30
2019-05-25T16:33:09.819Z,22.20
2019-05-25T16:35:44.815Z,22.20
2019-05-25T16:38:49.418Z,22.10
2019-05-25T16:41:53.275Z,22.00
2019-05-25T16:44:57.256Z,22.10
2019-05-25T16:48:01.221Z,22.00
2019-05-25T16:51:07.123Z,21.90
2019-05-25T16:54:11.363Z,21.80
2019-05-25T16:57:15.458Z,21.70
2019-05-25T17:00:31.607Z,21.60
2019-05-25T17:03:35.752Z,21.60
2019-05-25T17:06:39.585Z,21.50
2019-05-25T17:09:43.474Z,21.50
2019-05-25T17:12:47.293Z,21.40
2019-05-25T17:15:51.200Z,21.20
2019-05-25T17:18:55.041Z,21.20
2019-05-25T17:21:58.912Z,21.00
2019-05-25T17:25:02.775Z,21.00
2019-05-25T17:28:06.751Z,20.70
2019-05-25T17:31:10.645Z,20.70
2019-05-25T17:34:14.492Z,20.60
2019-05-25T17:37:18.507Z,20.20
2019-05-25T17:40:22.414Z,20.00
2019-05-25T17:43:26.510Z,19.70
2019-05-25T17:46:30.445Z,19.60
2019-05-25T17:49:34.445Z,19.20
2019-05-25T17:52:38.564Z,19.00
2019-05-25T17:55:43.045Z,18.70
2019-05-25T17:59:06.253Z,18.30
2019-05-25T18:02:29.642Z,18.10
2019-05-25T18:05:33.742Z,17.90
2019-05-25T18:08:37.646Z,17.80
2019-05-25T18:11:41.656Z,17.60
2019-05-25T18:14:47.006Z,17.60
2019-05-25T18:17:51.043Z,17.60
2019-05-25T18:20:55.141Z,17.60
2019-05-25T18:23:59.018Z,17.50
2019-05-25T18:27:02.955Z,17.50
2019-05-25T18:30:08.412Z,17.40
2019-05-25T18:33:12.311Z,17.30
2019-05-25T18:36:16.327Z,17.20
2019-05-25T18:39:20.752Z,17.20
2019-05-25T18:42:24.661Z,17.10
2019-05-25T18:45:28.571Z,16.90
2019-05-25T18:48:34.483Z,16.70
2019-05-25T18:51:38.202Z,16.60
2019-05-25T18:54:42.120Z,16.40
2019-05-25T18:57:46.775Z,16.30
2019-05-25T19:00:51.001Z,16.20
2019-05-25T19:03:55.226Z,16.00
2019-05-25T19:06:59.563Z,15.80
2019-05-25T19:10:05.591Z,15.70
2019-05-25T19:13:09.623Z,15.60
2019-05-25T19:16:14.366Z,15.50
2019-05-25T19:19:18.360Z,15.40
2019-05-25T19:22:22.300Z,15.20
2019-05-25T19:25:26.144Z,15.20
2019-05-25T19:28:30.079Z,15.10
2019-05-25T19:31:35.191Z,14.90
2019-05-25T19:34:39.035Z,14.80
2019-05-25T19:37:42.924Z,14.80
2019-05-25T19:40:47.060Z,14.60
2019-05-25T19:43:51.071Z,14.60
2019-05-25T19:46:55.302Z,14.60
2019-05-25T19:49:59.149Z,14.70
2019-05-25T19:53:03.224Z,14.70
2019-05-25T19:56:07.287Z,14.70
2019-05-25T19:59:11.348Z,14.70
2019-05-25T20:02:15.310Z,14.70
2019-05-25T20:05:20.748Z,14.70
2019-05-25T20:08:24.632Z,14.70
2019-05-25T20:11:28.486Z,14.70
2019-05-25T20:14:32.432Z,14.60
2019-05-25T20:17:37.383Z,14.50
2019-05-25T20:20:41.368Z,14.40
2019-05-25T20:23:45.240Z,14.30
2019-05-25T20:26:49.076Z,14.30
2019-05-25T20:29:53.003Z,14.20
2019-05-25T20:32:56.909Z,14.00
2019-05-25T20:36:00.881Z,13.90
2019-05-25T20:39:07.364Z,13.80
2019-05-25T20:42:14.782Z,13.70
2019-05-25T20:45:16.956Z,13.70
2019-05-25T20:48:20.987Z,13.60
2019-05-25T20:51:24.930Z,13.60
2019-05-25T20:54:29.023Z,13.50
2019-05-25T20:57:33.121Z,13.40
2019-05-25T21:00:36.919Z,13.40
2019-05-25T21:03:41.052Z,13.30
2019-05-25T21:06:44.951Z,13.20
2019-05-25T21:09:48.875Z,13.20
2019-05-25T21:12:53.002Z,13.20
2019-05-25T21:15:57.003Z,13.20
2019-05-25T21:19:03.065Z,13.10
2019-05-25T21:22:06.488Z,13.00
2019-05-25T21:25:11.312Z,13.00
2019-05-25T21:28:15.201Z,13.00
2019-05-25T21:31:19.100Z,12.90
2019-05-25T21:34:22.990Z,12.80
2019-05-25T21:37:26.905Z,12.90
2019-05-25T21:40:31.052Z,12.80
2019-05-25T21:43:34.928Z,12.70
2019-05-25T21:46:38.867Z,12.60
2019-05-25T21:49:42.884Z,12.60
2019-05-25T21:52:46.760Z,12.70
2019-05-25T21:55:50.666Z,12.50
2019-05-25T21:58:54.599Z,12.60
2019-05-25T22:01:58.642Z,12.50
2019-05-25T22:05:02.537Z,12.50
2019-05-25T22:08:06.662Z,12.40
2019-05-25T22:11:10.567Z,12.40
2019-05-25T22:14:14.706Z,12.40
2019-05-25T22:17:18.580Z,12.40
2019-05-25T22:20:22.446Z,12.40
2019-05-25T22:23:26.421Z,12.30
2019-05-25T22:26:30.321Z,12.30
2019-05-25T22:29:34.229Z,12.20
2019-05-25T22:32:40.446Z,12.20
2019-05-25T22:35:44.369Z,12.10
2019-05-25T22:38:48.186Z,12.00
2019-05-25T22:41:52.128Z,12.10
2019-05-25T22:44:56.048Z,12.10
2019-05-25T22:48:00.052Z,12.00
2019-05-25T22:51:03.965Z,12.10
2019-05-25T22:54:08.104Z,12.00
2019-05-25T22:57:11.932Z,12.10
2019-05-25T23:00:17.142Z,12.10
2019-05-25T23:03:21.096Z,12.10
2019-05-25T23:06:25.022Z,12.10
2019-05-25T23:09:28.848Z,12.10
2019-05-25T23:12:32.757Z,12.10
2019-05-25T23:15:36.681Z,12.00
2019-05-25T23:18:40.822Z,12.00
2019-05-25T23:21:44.627Z,12.10
2019-05-25T23:24:48.527Z,12.20
2019-05-25T23:27:52.537Z,12.30
2019-05-25T23:30:56.419Z,12.40
2019-05-25T23:34:00.388Z,12.40
2019-05-25T23:37:14.356Z,12.50
2019-05-25T23:40:10.217Z,12.60
2019-05-25T23:43:14.346Z,12.70
2019-05-25T23:46:18.355Z,12.70
2019-05-25T23:49:22.236Z,12.80
2019-05-25T23:52:26.079Z,12.80
2019-05-25T23:55:30.253Z,12.80
2019-05-25T23:58:34.131Z,12.80
